createdAt,value
2022-11-25T00:00:22.866Z,9.60
2022-11-25T00:01:22.865Z,9.20
2022-11-25T00:02:22.972Z,9.00
2022-11-25T00:03:22.878Z,8.10
2022-11-25T00:04:22.853Z,8.60
2022-11-25T00:05:22.817Z,8.20
2022-11-25T00:06:22.817Z,8.60
2022-11-25T00:07:22.967Z,8.30
2022-11-25T00:08:22.792Z,9.00
2022-11-25T00:09:22.784Z,9.20
2022-11-25T00:10:22.773Z,8.10
2022-11-25T00:11:22.773Z,8.50
2022-11-25T00:12:22.756Z,8.80
2022-11-25T00:13:22.752Z,8.70
2022-11-25T00:14:22.738Z,9.40
2022-11-25T00:15:22.730Z,9.30
2022-11-25T00:16:22.773Z,9.90
2022-11-25T00:17:22.715Z,9.80
2022-11-25T00:18:22.720Z,10.30
2022-11-25T00:19:22.690Z,9.60
2022-11-25T00:20:22.684Z,9.90
2022-11-25T00:21:22.695Z,9.30
2022-11-25T00:22:22.662Z,9.70
2022-11-25T00:23:22.651Z,9.10
2022-11-25T00:24:22.648Z,8.80
2022-11-25T00:25:22.637Z,8.30
2022-11-25T00:26:22.639Z,8.60
2022-11-25T00:27:22.622Z,8.60
2022-11-25T00:28:22.611Z,8.20
2022-11-25T00:29:22.599Z,8.10
2022-11-25T00:30:22.590Z,8.70
2022-11-25T00:31:22.619Z,8.70
2022-11-25T00:32:22.568Z,8.60
2022-11-25T00:33:22.561Z,7.70
2022-11-25T00:34:22.550Z,8.10
2022-11-25T00:35:22.540Z,8.40
2022-11-25T00:36:22.542Z,8.00
2022-11-25T00:37:22.525Z,7.90
2022-11-25T00:38:22.515Z,7.90
2022-11-25T00:39:22.503Z,8.70
2022-11-25T00:40:22.497Z,7.80
2022-11-25T00:41:22.494Z,7.70
2022-11-25T00:42:22.473Z,8.10
2022-11-25T00:43:22.464Z,8.00
2022-11-25T00:44:22.455Z,8.60
2022-11-25T00:45:22.463Z,9.20
2022-11-25T00:46:22.450Z,9.80
2022-11-25T00:47:22.430Z,11.10
2022-11-25T00:48:22.424Z,10.20
2022-11-25T00:49:22.412Z,10.50
2022-11-25T00:50:22.400Z,11.80
2022-11-25T00:51:22.407Z,11.10
2022-11-25T00:52:22.384Z,11.00
2022-11-25T00:53:22.374Z,11.60
2022-11-25T00:54:22.384Z,11.00
2022-11-25T00:55:22.351Z,12.30
2022-11-25T00:56:22.357Z,10.70
2022-11-25T00:57:22.337Z,10.20
2022-11-25T00:58:22.329Z,10.00
2022-11-25T00:59:22.320Z,10.00
2022-11-25T01:00:22.313Z,10.50
2022-11-25T01:01:22.404Z,10.80
2022-11-25T01:02:22.376Z,9.90
2022-11-25T01:03:22.285Z,11.00
2022-11-25T01:04:22.282Z,10.90
2022-11-25T01:05:22.270Z,10.80
2022-11-25T01:06:22.286Z,10.20
2022-11-25T01:07:22.319Z,10.40
2022-11-25T01:08:22.246Z,10.50
2022-11-25T01:09:22.235Z,9.50
2022-11-25T01:10:22.230Z,10.00
2022-11-25T01:11:22.228Z,9.50
2022-11-25T01:12:22.207Z,9.20
2022-11-25T01:13:22.201Z,9.00
2022-11-25T01:14:22.188Z,9.50
2022-11-25T01:15:22.196Z,8.50
2022-11-25T01:16:22.244Z,9.00
2022-11-25T01:17:22.164Z,9.40
2022-11-25T01:18:22.156Z,9.40
2022-11-25T01:19:22.155Z,8.80
2022-11-25T01:20:22.138Z,9.00
2022-11-25T01:21:22.143Z,9.40
2022-11-25T01:22:22.217Z,9.10
2022-11-25T01:23:22.137Z,9.00
2022-11-25T01:24:23.942Z,9.20
2022-11-25T01:25:22.095Z,9.10
2022-11-25T01:26:22.095Z,8.70
2022-11-25T01:27:22.077Z,9.00
2022-11-25T01:28:22.063Z,9.00
2022-11-25T01:29:22.063Z,9.10
2022-11-25T01:30:22.060Z,8.90
2022-11-25T01:31:22.110Z,8.60
2022-11-25T01:32:22.037Z,8.40
2022-11-25T01:33:22.026Z,8.70
2022-11-25T01:34:22.014Z,8.40
2022-11-25T01:35:22.006Z,9.00
2022-11-25T01:36:22.008Z,9.10
2022-11-25T01:37:21.991Z,9.20
2022-11-25T01:38:21.980Z,8.70
2022-11-25T01:39:24.465Z,9.00
2022-11-25T01:40:22.961Z,8.50
2022-11-25T01:41:21.975Z,8.60
2022-11-25T01:42:21.948Z,9.40
2022-11-25T01:43:21.937Z,8.60
2022-11-25T01:44:21.933Z,8.70
2022-11-25T01:45:21.996Z,8.20
2022-11-25T01:46:21.999Z,8.90
2022-11-25T01:47:21.903Z,9.60
2022-11-25T01:48:21.899Z,8.10
2022-11-25T01:49:21.889Z,8.70
2022-11-25T01:50:21.880Z,8.30
2022-11-25T01:51:21.879Z,8.40
2022-11-25T01:52:21.863Z,8.60
2022-11-25T01:53:21.860Z,9.30
2022-11-25T01:54:21.847Z,8.60
2022-11-25T01:55:21.845Z,9.00
2022-11-25T01:56:21.841Z,8.90
2022-11-25T01:57:21.828Z,8.60
2022-11-25T01:58:21.816Z,9.10
2022-11-25T01:59:21.802Z,8.50
2022-11-25T02:00:21.799Z,9.30
2022-11-25T02:01:21.972Z,8.50
2022-11-25T02:02:21.821Z,9.10
2022-11-25T02:03:21.796Z,8.10
2022-11-25T02:04:21.760Z,8.80
2022-11-25T02:05:21.746Z,8.70
2022-11-25T02:06:21.753Z,8.30
2022-11-25T02:07:21.768Z,8.60
2022-11-25T02:08:21.727Z,8.40
2022-11-25T02:09:21.717Z,8.20
2022-11-25T02:10:21.703Z,8.20
2022-11-25T02:11:21.706Z,9.60
2022-11-25T02:12:21.693Z,8.80
2022-11-25T02:13:21.679Z,7.70
2022-11-25T02:14:21.670Z,8.10
2022-11-25T02:15:21.659Z,8.30
2022-11-25T02:16:21.701Z,7.90
2022-11-25T02:17:21.645Z,7.70
2022-11-25T02:18:21.636Z,8.10
2022-11-25T02:19:21.628Z,7.90
2022-11-25T02:20:21.619Z,7.40
2022-11-25T02:21:21.621Z,8.10
2022-11-25T02:22:21.613Z,8.60
2022-11-25T02:23:21.592Z,8.50
2022-11-25T02:24:21.579Z,9.00
2022-11-25T02:25:21.571Z,9.10
2022-11-25T02:26:21.578Z,9.00
2022-11-25T02:27:21.554Z,9.50
2022-11-25T02:28:21.547Z,9.30
2022-11-25T02:29:21.536Z,9.70
2022-11-25T02:30:21.531Z,9.60
2022-11-25T02:31:21.564Z,9.90
2022-11-25T02:32:21.511Z,9.30
2022-11-25T02:33:21.504Z,9.40
2022-11-25T02:34:21.490Z,9.70
2022-11-25T02:35:21.487Z,9.50
2022-11-25T02:36:21.493Z,9.50
2022-11-25T02:37:21.467Z,9.60
2022-11-25T02:38:21.464Z,9.20
2022-11-25T02:39:21.452Z,9.20
2022-11-25T02:40:21.440Z,8.80
2022-11-25T02:41:21.454Z,9.20
2022-11-25T02:42:21.425Z,9.30
2022-11-25T02:43:21.412Z,9.80
2022-11-25T02:44:21.406Z,9.60
2022-11-25T02:45:21.553Z,9.40
2022-11-25T02:46:22.664Z,9.70
2022-11-25T02:47:22.378Z,9.50
2022-11-25T02:48:30.204Z,9.50
2022-11-25T02:49:22.351Z,10.00
2022-11-25T02:50:21.349Z,9.70
2022-11-25T02:51:21.344Z,10.00
2022-11-25T02:52:21.329Z,10.00
2022-11-25T02:53:21.328Z,10.70
2022-11-25T02:54:21.311Z,9.90
2022-11-25T02:55:21.308Z,10.20
2022-11-25T02:56:21.302Z,10.20
2022-11-25T02:57:21.286Z,10.50
2022-11-25T02:58:21.276Z,10.80
2022-11-25T02:59:21.268Z,11.00
2022-11-25T03:00:21.256Z,10.10
2022-11-25T03:01:21.295Z,10.10
2022-11-25T03:02:21.313Z,10.10
2022-11-25T03:03:21.226Z,10.50
2022-11-25T03:04:21.222Z,9.80
2022-11-25T03:05:21.214Z,10.80
2022-11-25T03:06:21.215Z,10.50
2022-11-25T03:07:21.279Z,10.90
2022-11-25T03:08:21.185Z,10.00
2022-11-25T03:09:21.179Z,10.90
2022-11-25T03:10:21.167Z,10.90
2022-11-25T03:11:21.166Z,11.60
2022-11-25T03:12:21.158Z,12.40
2022-11-25T03:13:21.138Z,11.60
2022-11-25T03:14:21.129Z,10.80
2022-11-25T03:15:21.122Z,11.30
2022-11-25T03:16:21.154Z,12.30
2022-11-25T03:17:21.099Z,12.20
2022-11-25T03:18:21.094Z,12.00
2022-11-25T03:19:21.081Z,11.80
2022-11-25T03:20:21.105Z,12.30
2022-11-25T03:21:21.092Z,11.70
2022-11-25T03:22:21.072Z,12.00
2022-11-25T03:23:21.055Z,11.60
2022-11-25T03:24:21.042Z,11.80
2022-11-25T03:25:21.042Z,12.10
2022-11-25T03:26:21.034Z,12.10
2022-11-25T03:27:21.014Z,11.90
2022-11-25T03:28:21.005Z,10.90
2022-11-25T03:29:20.995Z,11.90
2022-11-25T03:30:20.984Z,12.10
2022-11-25T03:31:21.033Z,12.00
2022-11-25T03:32:21.970Z,11.80
2022-11-25T03:33:20.961Z,10.50
2022-11-25T03:34:20.956Z,11.50
2022-11-25T03:35:20.938Z,11.80
2022-11-25T03:36:20.947Z,11.20
2022-11-25T03:37:21.001Z,12.20
2022-11-25T03:38:20.922Z,11.40
2022-11-25T03:39:20.912Z,11.30
2022-11-25T03:40:20.903Z,11.90
2022-11-25T03:41:20.906Z,11.00
2022-11-25T03:42:20.882Z,10.80
2022-11-25T03:43:20.878Z,10.80
2022-11-25T03:44:20.869Z,9.90
2022-11-25T03:45:20.864Z,9.40
2022-11-25T03:46:20.916Z,10.50
2022-11-25T03:47:52.744Z,10.00
2022-11-25T03:48:20.859Z,10.10
2022-11-25T03:49:20.823Z,10.10
2022-11-25T03:50:20.813Z,9.60
2022-11-25T03:51:20.822Z,9.70
2022-11-25T03:52:20.801Z,10.00
2022-11-25T03:53:20.790Z,9.90
2022-11-25T03:54:20.779Z,9.80
2022-11-25T03:55:20.772Z,9.90
2022-11-25T03:56:20.762Z,9.60
2022-11-25T03:57:20.763Z,10.20
2022-11-25T03:58:20.747Z,10.00
2022-11-25T03:59:20.736Z,10.10
2022-11-25T04:00:20.730Z,10.40
2022-11-25T04:01:20.788Z,9.20
2022-11-25T04:02:20.763Z,9.10
2022-11-25T04:03:20.698Z,9.40
2022-11-25T04:04:20.691Z,9.50
2022-11-25T04:05:20.686Z,9.40
2022-11-25T04:06:20.677Z,9.70
2022-11-25T04:07:20.723Z,10.00
2022-11-25T04:08:20.658Z,9.80
2022-11-25T04:09:20.649Z,9.80
2022-11-25T04:10:20.645Z,9.90
2022-11-25T04:11:20.627Z,9.40
2022-11-25T04:12:20.638Z,9.90
2022-11-25T04:13:20.624Z,9.90
2022-11-25T04:14:20.604Z,10.00
2022-11-25T04:15:20.598Z,11.20
2022-11-25T04:16:20.632Z,9.50
2022-11-25T04:17:20.590Z,9.70
2022-11-25T04:18:20.572Z,10.10
2022-11-25T04:19:20.562Z,9.70
2022-11-25T04:20:20.543Z,9.40
2022-11-25T04:21:21.557Z,9.80
2022-11-25T04:22:20.552Z,10.70
2022-11-25T04:23:20.537Z,9.30
2022-11-25T04:24:20.519Z,10.00
2022-11-25T04:25:20.511Z,9.60
2022-11-25T04:26:20.504Z,9.90
2022-11-25T04:27:20.713Z,9.10
2022-11-25T04:28:21.487Z,9.50
2022-11-25T04:29:20.481Z,9.40
2022-11-25T04:30:20.471Z,9.70
2022-11-25T04:31:20.512Z,8.90
2022-11-25T04:32:20.467Z,9.90
2022-11-25T04:33:20.445Z,8.90
2022-11-25T04:34:20.435Z,8.90
2022-11-25T04:35:20.424Z,9.50
2022-11-25T04:36:20.416Z,9.60
2022-11-25T04:37:20.421Z,8.60
2022-11-25T04:38:20.399Z,9.20
2022-11-25T04:39:20.389Z,9.40
2022-11-25T04:40:20.382Z,9.30
2022-11-25T04:41:20.378Z,8.80
2022-11-25T04:42:20.373Z,9.10
2022-11-25T04:43:20.353Z,9.50
2022-11-25T04:44:20.345Z,9.50
2022-11-25T04:45:23.397Z,10.30
2022-11-25T04:46:21.429Z,9.70
2022-11-25T04:47:20.323Z,9.20
2022-11-25T04:48:21.310Z,9.60
2022-11-25T04:49:20.305Z,9.90
2022-11-25T04:50:20.293Z,9.70
2022-11-25T04:51:20.285Z,9.70
2022-11-25T04:52:20.289Z,10.20
2022-11-25T04:53:20.266Z,9.90
2022-11-25T04:54:20.261Z,10.40
2022-11-25T04:55:20.252Z,9.60
2022-11-25T04:56:20.242Z,9.60
2022-11-25T04:57:20.245Z,10.10
2022-11-25T04:58:20.223Z,9.70
2022-11-25T04:59:20.218Z,9.30
2022-11-25T05:00:20.213Z,10.00
2022-11-25T05:01:20.253Z,9.60
2022-11-25T05:02:20.264Z,9.60
2022-11-25T05:03:20.190Z,9.40
2022-11-25T05:04:20.174Z,9.70
2022-11-25T05:05:20.168Z,10.20
2022-11-25T05:06:20.155Z,10.30
2022-11-25T05:07:20.209Z,10.70
2022-11-25T05:08:20.141Z,10.50
2022-11-25T05:09:20.129Z,10.30
2022-11-25T05:10:20.117Z,9.90
2022-11-25T05:11:20.113Z,9.30
2022-11-25T05:12:20.121Z,9.20
2022-11-25T05:13:20.097Z,9.30
2022-11-25T05:14:20.093Z,9.40
2022-11-25T05:15:20.082Z,9.00
2022-11-25T05:16:20.096Z,8.90
2022-11-25T05:17:20.074Z,8.60
2022-11-25T05:18:20.055Z,9.00
2022-11-25T05:19:20.063Z,9.30
2022-11-25T05:20:20.043Z,9.80
2022-11-25T05:21:20.031Z,9.30
2022-11-25T05:22:20.034Z,9.00
2022-11-25T05:23:20.016Z,10.10
2022-11-25T05:24:20.004Z,10.00
2022-11-25T05:25:19.996Z,10.00
2022-11-25T05:26:19.990Z,10.20
2022-11-25T05:27:19.990Z,9.60
2022-11-25T05:28:19.967Z,10.40
2022-11-25T05:29:19.960Z,10.50
2022-11-25T05:30:19.951Z,10.10
2022-11-25T05:31:20.027Z,10.00
2022-11-25T05:32:19.946Z,10.30
2022-11-25T05:33:19.928Z,9.70
2022-11-25T05:34:19.921Z,10.60
2022-11-25T05:35:19.904Z,9.40
2022-11-25T05:36:19.900Z,9.70
2022-11-25T05:37:24.100Z,10.00
2022-11-25T05:38:20.883Z,10.10
2022-11-25T05:39:19.874Z,9.40
2022-11-25T05:40:19.863Z,10.00
2022-11-25T05:41:19.856Z,9.80
2022-11-25T05:42:19.855Z,9.20
2022-11-25T05:43:19.837Z,9.20
2022-11-25T05:44:22.931Z,9.50
2022-11-25T05:45:20.821Z,9.10
2022-11-25T05:46:19.830Z,8.90
2022-11-25T05:47:19.827Z,8.60
2022-11-25T05:48:19.793Z,9.50
2022-11-25T05:49:19.787Z,9.80
2022-11-25T05:50:19.776Z,9.30
2022-11-25T05:51:19.861Z,8.90
2022-11-25T05:52:19.771Z,9.40
2022-11-25T05:53:19.753Z,9.60
2022-11-25T05:54:19.744Z,8.60
2022-11-25T05:55:19.733Z,9.60
2022-11-25T05:56:19.725Z,8.60
2022-11-25T05:57:19.728Z,8.80
2022-11-25T05:58:19.715Z,9.40
2022-11-25T05:59:19.698Z,8.90
2022-11-25T06:00:23.560Z,8.60
2022-11-25T06:01:21.677Z,9.00
2022-11-25T06:02:19.701Z,8.60
2022-11-25T06:03:19.728Z,8.80
2022-11-25T06:04:19.652Z,8.80
2022-11-25T06:05:19.645Z,8.40
2022-11-25T06:06:19.636Z,9.00
2022-11-25T06:07:19.720Z,9.60
2022-11-25T06:08:19.616Z,9.60
2022-11-25T06:09:19.609Z,9.00
2022-11-25T06:10:19.601Z,9.40
2022-11-25T06:11:19.590Z,9.10
2022-11-25T06:12:19.594Z,10.10
2022-11-25T06:13:19.573Z,9.90
2022-11-25T06:14:19.563Z,9.30
2022-11-25T06:15:19.557Z,9.60
2022-11-25T06:16:19.605Z,9.60
2022-11-25T06:17:19.537Z,9.20
2022-11-25T06:18:19.538Z,9.50
2022-11-25T06:19:19.524Z,9.60
2022-11-25T06:20:19.510Z,9.50
2022-11-25T06:21:19.504Z,9.00
2022-11-25T06:22:19.567Z,9.10
2022-11-25T06:23:19.499Z,9.80
2022-11-25T06:24:19.477Z,9.40
2022-11-25T06:25:19.462Z,9.30
2022-11-25T06:26:20.463Z,9.40
2022-11-25T06:27:19.452Z,10.90
2022-11-25T06:28:19.455Z,9.20
2022-11-25T06:29:19.436Z,10.00
2022-11-25T06:30:19.431Z,9.60
2022-11-25T06:31:19.461Z,10.20
2022-11-25T06:32:19.519Z,9.90
2022-11-25T06:33:19.414Z,10.60
2022-11-25T06:34:19.402Z,9.80
2022-11-25T06:35:19.382Z,10.10
2022-11-25T06:36:19.374Z,10.10
2022-11-25T06:37:19.365Z,10.40
2022-11-25T06:38:19.372Z,10.20
2022-11-25T06:39:19.345Z,10.70
2022-11-25T06:40:19.336Z,11.50
2022-11-25T06:41:19.330Z,11.10
2022-11-25T06:42:19.320Z,10.40
2022-11-25T06:43:19.324Z,11.50
2022-11-25T06:44:19.309Z,11.00
2022-11-25T06:45:19.299Z,11.40
2022-11-25T06:46:24.545Z,11.30
2022-11-25T06:47:21.277Z,10.70
2022-11-25T06:48:19.280Z,11.50
2022-11-25T06:49:19.289Z,11.00
2022-11-25T06:50:19.252Z,11.20
2022-11-25T06:51:19.244Z,9.90
2022-11-25T06:52:19.241Z,10.10
2022-11-25T06:53:23.917Z,10.90
2022-11-25T06:54:21.220Z,10.80
2022-11-25T06:55:19.208Z,9.10
2022-11-25T06:56:19.202Z,9.20
2022-11-25T06:57:19.193Z,9.90
2022-11-25T06:58:34.950Z,9.60
2022-11-25T06:59:21.176Z,10.20
2022-11-25T07:00:19.170Z,10.60
2022-11-25T07:01:19.214Z,10.20
2022-11-25T07:02:19.179Z,9.70
2022-11-25T07:03:19.185Z,9.60
2022-11-25T07:04:19.167Z,10.30
2022-11-25T07:05:19.116Z,9.10
2022-11-25T07:06:19.110Z,9.70
2022-11-25T07:07:19.182Z,8.90
2022-11-25T07:08:19.121Z,9.20
2022-11-25T07:09:19.102Z,8.30
2022-11-25T07:10:19.075Z,9.00
2022-11-25T07:11:19.068Z,9.00
2022-11-25T07:12:19.057Z,9.80
2022-11-25T07:13:19.060Z,9.40
2022-11-25T07:14:19.087Z,9.90
2022-11-25T07:15:19.031Z,9.30
2022-11-25T07:16:19.082Z,9.90
2022-11-25T07:17:19.016Z,9.00
2022-11-25T07:18:19.004Z,8.90
2022-11-25T07:19:19.992Z,8.90
2022-11-25T07:20:18.985Z,8.50
2022-11-25T07:21:18.976Z,8.60
2022-11-25T07:22:18.964Z,8.50
2022-11-25T07:23:18.963Z,8.40
2022-11-25T07:24:18.948Z,8.60
2022-11-25T07:25:18.936Z,8.40
2022-11-25T07:26:18.927Z,8.40
2022-11-25T07:27:18.921Z,8.80
2022-11-25T07:28:18.922Z,9.00
2022-11-25T07:29:49.968Z,8.10
2022-11-25T07:31:23.930Z,8.80
2022-11-25T07:32:19.875Z,7.30
2022-11-25T07:33:19.096Z,7.20
2022-11-25T07:34:20.177Z,7.30
2022-11-25T07:35:18.849Z,8.00
2022-11-25T07:36:18.842Z,7.60
2022-11-25T07:37:18.827Z,7.30
2022-11-25T07:38:18.830Z,8.10
2022-11-25T07:39:18.812Z,7.30
2022-11-25T07:40:18.802Z,7.60
2022-11-25T07:41:18.789Z,7.70
2022-11-25T07:42:18.783Z,8.20
2022-11-25T07:43:18.784Z,8.10
2022-11-25T07:44:18.762Z,7.80
2022-11-25T07:45:18.758Z,7.70
2022-11-25T07:46:23.443Z,7.70
2022-11-25T07:47:20.737Z,7.50
2022-11-25T07:48:18.739Z,7.40
2022-11-25T07:49:18.721Z,7.70
2022-11-25T07:50:18.714Z,7.10
2022-11-25T07:51:18.702Z,7.80
2022-11-25T07:52:18.696Z,7.90
2022-11-25T07:53:18.697Z,7.60
2022-11-25T07:54:18.684Z,7.50
2022-11-25T07:55:18.671Z,7.30
2022-11-25T07:56:18.657Z,7.50
2022-11-25T07:57:18.651Z,7.10
2022-11-25T07:58:18.654Z,6.80
2022-11-25T07:59:18.634Z,7.50
2022-11-25T08:00:18.624Z,6.60
2022-11-25T08:01:18.680Z,7.10
2022-11-25T08:02:18.609Z,7.40
2022-11-25T08:03:18.631Z,7.20
2022-11-25T08:04:20.707Z,6.90
2022-11-25T08:05:19.581Z,7.60
2022-11-25T08:06:18.568Z,7.10
2022-11-25T08:07:18.655Z,7.00
2022-11-25T08:08:18.567Z,7.10
2022-11-25T08:09:18.543Z,7.80
2022-11-25T08:10:18.547Z,7.00
2022-11-25T08:11:18.545Z,7.40
2022-11-25T08:12:18.513Z,7.30
2022-11-25T08:13:18.513Z,7.20
2022-11-25T08:14:18.515Z,7.70
2022-11-25T08:15:18.506Z,7.30
2022-11-25T08:16:18.529Z,7.50
2022-11-25T08:17:18.511Z,7.30
2022-11-25T08:18:18.475Z,7.80
2022-11-25T08:19:18.458Z,8.00
2022-11-25T08:20:18.449Z,7.80
2022-11-25T08:21:18.442Z,8.80
2022-11-25T08:22:18.431Z,8.10
2022-11-25T08:23:18.432Z,9.00
2022-11-25T08:24:18.417Z,8.50
2022-11-25T08:25:18.402Z,8.70
2022-11-25T08:26:18.393Z,8.10
2022-11-25T08:27:18.391Z,8.30
2022-11-25T08:28:18.414Z,8.30
2022-11-25T08:29:18.371Z,8.70
2022-11-25T08:30:18.366Z,8.40
2022-11-25T08:31:18.443Z,8.60
2022-11-25T08:32:18.343Z,8.50
2022-11-25T08:33:18.345Z,8.90
2022-11-25T08:34:18.334Z,7.00
2022-11-25T08:35:18.318Z,8.20
2022-11-25T08:36:18.312Z,8.30
2022-11-25T08:37:18.299Z,8.10
2022-11-25T08:38:18.304Z,8.30
2022-11-25T08:40:20.271Z,7.50
2022-11-25T08:41:18.270Z,8.70
2022-11-25T08:42:18.254Z,8.70
2022-11-25T08:43:18.261Z,8.80
2022-11-25T08:44:18.242Z,9.70
2022-11-25T08:45:18.233Z,9.30
2022-11-25T08:46:18.318Z,9.40
2022-11-25T08:47:18.216Z,9.90
2022-11-25T08:48:18.216Z,9.30
2022-11-25T08:49:18.216Z,8.90
2022-11-25T08:50:18.185Z,8.80
2022-11-25T08:51:18.225Z,8.70
2022-11-25T08:52:18.194Z,8.80
2022-11-25T08:53:18.173Z,8.90
2022-11-25T08:54:18.157Z,9.10
2022-11-25T08:55:18.160Z,8.70
2022-11-25T08:56:21.582Z,9.10
2022-11-25T08:57:20.121Z,9.00
2022-11-25T08:58:18.124Z,9.50
2022-11-25T08:59:18.111Z,10.20
2022-11-25T09:00:18.097Z,9.70
2022-11-25T09:01:18.136Z,9.20
2022-11-25T09:02:18.166Z,8.70
2022-11-25T09:03:18.148Z,9.10
2022-11-25T09:04:18.056Z,8.50
2022-11-25T09:05:18.048Z,8.50
2022-11-25T09:06:18.036Z,8.80
2022-11-25T09:07:18.134Z,10.30
2022-11-25T09:08:18.196Z,8.90
2022-11-25T09:09:18.009Z,9.40
2022-11-25T09:10:18.002Z,9.50
2022-11-25T09:11:18.051Z,9.20
2022-11-25T09:12:17.982Z,10.70
2022-11-25T09:13:17.999Z,9.60
2022-11-25T09:14:18.006Z,9.90
2022-11-25T09:15:17.959Z,10.30
2022-11-25T09:16:17.999Z,9.30
2022-11-25T09:17:17.939Z,12.00
2022-11-25T09:18:17.941Z,11.70
2022-11-25T09:19:17.918Z,11.50
2022-11-25T09:20:17.907Z,10.60
2022-11-25T09:21:17.899Z,10.00
2022-11-25T09:22:17.896Z,10.00
2022-11-25T09:23:17.898Z,10.70
2022-11-25T09:24:17.871Z,10.50
2022-11-25T09:25:17.868Z,10.60
2022-11-25T09:26:17.855Z,10.70
2022-11-25T09:27:17.852Z,11.20
2022-11-25T09:28:17.835Z,10.40
2022-11-25T09:29:17.841Z,9.70
2022-11-25T09:30:17.828Z,9.40
2022-11-25T09:31:17.842Z,10.20
2022-11-25T09:32:17.800Z,8.70
2022-11-25T09:33:17.794Z,8.40
2022-11-25T09:34:17.791Z,9.10
2022-11-25T09:35:17.773Z,10.30
2022-11-25T09:36:17.764Z,9.60
2022-11-25T09:37:17.753Z,8.70
2022-11-25T09:38:17.747Z,8.30
2022-11-25T09:39:17.750Z,8.30
2022-11-25T09:40:17.811Z,9.20
2022-11-25T09:41:17.721Z,8.40
2022-11-25T09:42:17.786Z,8.70
2022-11-25T09:43:17.700Z,8.40
2022-11-25T09:44:17.706Z,8.50
2022-11-25T09:45:17.680Z,8.70
2022-11-25T09:46:17.748Z,9.00
2022-11-25T09:47:17.658Z,8.60
2022-11-25T09:48:49.568Z,8.20
2022-11-25T09:49:17.651Z,8.10
2022-11-25T09:50:17.651Z,8.00
2022-11-25T09:51:17.621Z,8.40
2022-11-25T09:52:17.611Z,7.60
2022-11-25T09:53:17.617Z,8.00
2022-11-25T09:54:17.711Z,8.20
2022-11-25T09:55:17.585Z,7.90
2022-11-25T09:56:17.574Z,7.90
2022-11-25T09:57:17.571Z,7.80
2022-11-25T09:58:17.571Z,7.90
2022-11-25T09:59:17.565Z,8.30
2022-11-25T10:00:17.537Z,8.00
2022-11-25T10:01:17.528Z,7.40
2022-11-25T10:02:17.583Z,7.90
2022-11-25T10:03:17.622Z,8.50
2022-11-25T10:04:17.512Z,8.50
2022-11-25T10:05:17.493Z,8.80
2022-11-25T10:06:17.522Z,9.10
2022-11-25T10:07:17.468Z,8.80
2022-11-25T10:08:17.460Z,8.70
2022-11-25T10:09:17.462Z,8.90
2022-11-25T10:10:17.439Z,9.60
2022-11-25T10:11:17.429Z,8.70
2022-11-25T10:12:17.419Z,9.30
2022-11-25T10:13:17.416Z,8.80
2022-11-25T10:14:17.416Z,9.50
2022-11-25T10:15:17.391Z,9.00
2022-11-25T10:16:17.427Z,10.10
2022-11-25T10:17:17.391Z,10.80
2022-11-25T10:18:17.396Z,10.30
2022-11-25T10:19:17.366Z,9.70
2022-11-25T10:20:17.349Z,8.90
2022-11-25T10:21:17.337Z,9.50
2022-11-25T10:22:17.327Z,9.90
2022-11-25T10:23:17.386Z,10.90
2022-11-25T10:24:17.320Z,9.80
2022-11-25T10:25:17.293Z,9.90
2022-11-25T10:26:17.287Z,9.10
2022-11-25T10:27:17.269Z,9.40
2022-11-25T10:28:18.267Z,9.80
2022-11-25T10:29:17.270Z,9.80
2022-11-25T10:30:17.249Z,9.70
2022-11-25T10:31:17.321Z,8.80
2022-11-25T10:32:17.228Z,9.30
2022-11-25T10:33:17.216Z,9.30
2022-11-25T10:34:17.216Z,9.30
2022-11-25T10:35:18.210Z,9.20
2022-11-25T10:36:17.202Z,10.50
2022-11-25T10:37:17.189Z,11.00
2022-11-25T10:38:19.145Z,10.00
2022-11-25T10:39:18.182Z,10.50
2022-11-25T10:40:17.151Z,11.00
2022-11-25T10:41:18.186Z,10.40
2022-11-25T10:42:17.153Z,11.30
2022-11-25T10:43:17.134Z,11.80
2022-11-25T10:44:17.139Z,12.50
2022-11-25T10:45:17.118Z,13.50
2022-11-25T10:46:17.202Z,15.50
2022-11-25T10:47:17.137Z,15.70
2022-11-25T10:48:18.089Z,15.90
2022-11-25T10:49:17.091Z,15.80
2022-11-25T10:50:17.102Z,15.80
2022-11-25T10:51:17.173Z,14.40
2022-11-25T10:52:17.050Z,14.10
2022-11-25T10:53:17.046Z,12.60
2022-11-25T10:54:17.049Z,15.50
2022-11-25T10:55:17.029Z,14.90
2022-11-25T10:56:17.015Z,12.70
2022-11-25T10:57:17.005Z,13.20
2022-11-25T10:58:16.998Z,13.70
2022-11-25T10:59:16.999Z,16.00
2022-11-25T11:00:17.631Z,13.70
2022-11-25T11:01:18.024Z,14.30
2022-11-25T11:02:17.052Z,16.20
2022-11-25T11:03:17.003Z,20.10
2022-11-25T11:04:16.960Z,15.80
2022-11-25T11:05:16.937Z,16.30
2022-11-25T11:06:16.933Z,16.60
2022-11-25T11:07:16.967Z,15.00
2022-11-25T11:08:17.017Z,17.30
2022-11-25T11:09:16.919Z,14.80
2022-11-25T11:10:16.968Z,16.10
2022-11-25T11:11:16.983Z,17.70
2022-11-25T11:12:16.879Z,18.50
2022-11-25T11:13:16.879Z,20.10
2022-11-25T11:14:17.014Z,21.30
2022-11-25T11:15:16.852Z,21.70
2022-11-25T11:16:16.930Z,22.40
2022-11-25T11:17:16.833Z,19.40
2022-11-25T11:18:16.921Z,17.90
2022-11-25T11:19:16.828Z,19.40
2022-11-25T11:20:16.822Z,18.60
2022-11-25T11:21:16.792Z,16.60
2022-11-25T11:22:16.787Z,17.50
2022-11-25T11:23:16.778Z,18.00
2022-11-25T11:24:16.777Z,18.10
2022-11-25T11:25:16.807Z,15.80
2022-11-25T11:26:16.750Z,17.70
2022-11-25T11:27:16.738Z,16.70
2022-11-25T11:28:16.732Z,17.20
2022-11-25T11:29:16.732Z,15.20
2022-11-25T11:30:16.720Z,17.20
2022-11-25T11:31:16.717Z,20.20
2022-11-25T11:32:16.693Z,17.90
2022-11-25T11:33:16.687Z,17.40
2022-11-25T11:34:16.685Z,17.90
2022-11-25T11:35:16.669Z,18.00
2022-11-25T11:36:16.656Z,15.30
2022-11-25T11:37:16.651Z,17.40
2022-11-25T11:38:16.627Z,18.10
2022-11-25T11:39:17.642Z,17.20
2022-11-25T11:40:16.622Z,15.90
2022-11-25T11:41:16.613Z,16.70
2022-11-25T11:42:16.608Z,16.10
2022-11-25T11:43:16.599Z,15.50
2022-11-25T11:44:16.642Z,16.80
2022-11-25T11:45:16.577Z,17.10
2022-11-25T11:46:16.628Z,15.20
2022-11-25T11:47:16.556Z,16.90
2022-11-25T11:48:16.550Z,17.00
2022-11-25T11:49:16.548Z,18.10
2022-11-25T11:50:16.527Z,18.40
2022-11-25T11:51:16.515Z,18.00
2022-11-25T11:52:16.506Z,16.70
2022-11-25T11:53:16.499Z,18.70
2022-11-25T11:54:16.492Z,17.80
2022-11-25T11:55:16.474Z,19.00
2022-11-25T11:56:34.816Z,18.70
2022-11-25T11:57:18.460Z,16.50
2022-11-25T11:58:16.451Z,17.30
2022-11-25T11:59:16.451Z,17.20
2022-11-25T12:00:16.497Z,17.20
2022-11-25T12:01:16.420Z,16.90
2022-11-25T12:02:16.451Z,18.70
2022-11-25T12:03:16.452Z,20.80
2022-11-25T12:04:16.406Z,19.40
2022-11-25T12:05:16.379Z,20.20
2022-11-25T12:06:16.457Z,22.10
2022-11-25T12:07:16.364Z,19.80
2022-11-25T12:08:16.359Z,19.60
2022-11-25T12:09:16.361Z,18.40
2022-11-25T12:10:16.332Z,20.50
2022-11-25T12:11:16.321Z,18.20
2022-11-25T12:12:16.318Z,22.90
2022-11-25T12:13:16.304Z,20.40
2022-11-25T12:14:16.292Z,33.20
2022-11-25T12:15:16.298Z,35.80
2022-11-25T12:16:16.329Z,41.60
2022-11-25T12:17:16.265Z,36.50
2022-11-25T12:18:16.259Z,44.80
2022-11-25T12:19:16.244Z,32.20
2022-11-25T12:20:16.245Z,25.00
2022-11-25T12:21:16.227Z,30.50
2022-11-25T12:22:16.218Z,33.40
2022-11-25T12:23:16.209Z,37.70
2022-11-25T12:24:16.201Z,37.60
2022-11-25T12:25:16.199Z,32.70
2022-11-25T12:26:16.194Z,29.20
2022-11-25T12:27:16.165Z,28.20
2022-11-25T12:28:16.168Z,25.30
2022-11-25T12:29:16.155Z,22.40
2022-11-25T12:30:16.151Z,21.30
2022-11-25T12:31:16.203Z,20.50
2022-11-25T12:32:16.126Z,20.10
2022-11-25T12:33:16.114Z,18.70
2022-11-25T12:34:16.127Z,18.40
2022-11-25T12:35:16.101Z,17.10
2022-11-25T12:36:16.086Z,16.70
2022-11-25T12:37:16.079Z,17.50
2022-11-25T12:38:16.065Z,16.60
2022-11-25T12:39:16.070Z,15.90
2022-11-25T12:40:16.060Z,16.20
2022-11-25T12:41:16.042Z,15.60
2022-11-25T12:42:16.028Z,15.50
2022-11-25T12:43:16.018Z,15.30
2022-11-25T12:44:16.010Z,15.80
2022-11-25T12:45:16.010Z,16.10
2022-11-25T12:46:16.021Z,17.50
2022-11-25T12:47:15.998Z,15.40
2022-11-25T12:48:21.108Z,17.10
2022-11-25T12:49:17.955Z,15.50
2022-11-25T12:50:15.955Z,15.30
2022-11-25T12:51:15.937Z,14.20
2022-11-25T12:52:16.013Z,11.80
2022-11-25T12:53:15.919Z,12.00
2022-11-25T12:54:15.909Z,10.30
2022-11-25T12:55:15.905Z,11.40
2022-11-25T12:56:15.889Z,11.30
2022-11-25T12:57:15.880Z,10.40
2022-11-25T12:58:15.926Z,10.40
2022-11-25T12:59:15.861Z,10.00
2022-11-25T13:00:40.503Z,9.60
2022-11-25T13:01:17.880Z,8.90
2022-11-25T13:02:15.880Z,9.10
2022-11-25T13:03:15.838Z,8.90
2022-11-25T13:04:15.826Z,9.10
2022-11-25T13:05:39.516Z,10.50
2022-11-25T13:06:17.790Z,10.30
2022-11-25T13:07:15.823Z,10.20
2022-11-25T13:08:15.770Z,11.20
2022-11-25T13:09:15.760Z,10.40
2022-11-25T13:10:15.755Z,11.50